Michigan Bluff, California
Current Conditions -  °F | °C
As of 9:52 PM on Wednesday 26 Nov 2014 (Local Time) from KBLU Reporting Station
Clear Clear  
Wind Chill: 55°   Ceiling: Unl
Heat Index: 55°   Visibility: 10mi
Dew Point: 24°   Wind: 8mph
Humidity: 30%   Direction: 160°SSE
Pressure: 30.38"   Gusts: NA
Location:  39.0724°N, 120.571°W
Report Text: KBLU 270552Z AUTO 16007KT 10SM CLR 13/M04 A3038 RMK AO2 SLP222 T01281044 10161 20128 53000
Loading
Personal Weather Stations






























Interactive Weather Map New forecast layout! Learn more

10-Day Weather Forecast

Advertisements
Track Severe Weather on mobile